Pagrindinis puslapis
METAR-TAF:

METAR-TAF

Oro uostai :

Užhorodas, Ukraina

platuma: 48-38-05N, ilguma: 022-15-53E, Aukštis: 117 m

Dabartinis oras

Ataskaita buvo paskelbta 1 valandą ir 7 minutes, ne 16:00 UTC
Vėjas 6 kt iš Pietryčių
Temperatūra 10°C
Drėgmė 62%
Slėgis 1001 hPa
Matomumas 10 km arba daugiau
Su prošvaistėmis ne aukštis 5000 ft

METAR: UKLU 231600Z 13003MPS 9999 BKN050 10/03 Q1001 NOSIG

Laikas: 19:07 (17:07 UTC)

Prognozė

Ataskaita buvo paskelbta 3 valandos ir 1 minutes, ne 14:06 UTC
Prognozė galioja nuo 23 metu 15 UTC su 23 metu 24 UTC
Vėjas 6 kt iš Pietryčių
Matomumas 10 km arba daugiau
Su prošvaistėmis ne aukštis 5000 ft
Laikinai
nuo 23 metu 18 UTC su 23 metu 24 UTC
Matomumas: 2000 m
Apsiniaukę ne aukštis 700 ft
lietus

TAF: UKLU 231406Z 2315/2324 14003MPS 9999 BKN050 TEMPO 2318/2324 2000 -RA OVC007

Orai ataskaitas ir orų prognozės (METAR, TAF).

turimą stotys yra geltonos ir raudonos taškus žemėlapyje.

Perkelti pele per norėdami pamatyti stoties vardą.

Tada spustelėkite, norėdami matyti oro stebėjimo ir prognozės.

Norėdami pakeisti žemėlapį: spustelėkite ant žalios mygtukų su juodo kryžiaus žemyn,; žalią mygtuką su brūkšneliu, jei norite nutolinti; arba žalių rodyklių gretimoms žemėlapius.


METAR-TAF: